createdAt,value
2019-03-31T15:44:07.767Z,43.41
2019-03-31T15:46:39.406Z,38.90
2019-03-31T15:49:10.859Z,38.55
2019-03-31T15:51:42.109Z,38.99
2019-03-31T15:54:13.465Z,39.24
2019-03-31T15:56:44.911Z,39.93
2019-03-31T15:59:16.391Z,40.92
2019-03-31T16:01:48.917Z,41.79
2019-03-31T16:04:20.591Z,42.51
2019-03-31T16:06:51.776Z,43.23
2019-03-31T16:09:24.218Z,43.93
2019-03-31T16:11:56.088Z,44.23
2019-03-31T16:14:31.482Z,44.70
2019-03-31T16:17:04.611Z,45.18
2019-03-31T16:19:36.167Z,45.23
2019-03-31T16:22:07.512Z,45.57
2019-03-31T16:24:40.604Z,45.65
2019-03-31T16:29:41.051Z,46.18
2019-03-31T16:32:12.261Z,46.55
2019-03-31T16:34:48.219Z,46.70
2019-03-31T16:37:19.636Z,46.78
2019-03-31T16:39:52.059Z,46.75
2019-03-31T16:42:23.537Z,46.79
2019-03-31T16:44:58.365Z,46.98
2019-03-31T16:47:29.311Z,47.05
2019-03-31T16:50:00.682Z,46.35
2019-03-31T16:52:32.964Z,46.41
2019-03-31T16:55:04.984Z,46.90
2019-03-31T16:57:36.341Z,47.32
2019-03-31T17:00:08.007Z,47.83
2019-03-31T17:02:39.400Z,48.23
2019-03-31T17:05:21.644Z,48.34
2019-03-31T17:07:44.165Z,48.65
2019-03-31T17:10:16.482Z,48.75
2019-03-31T17:12:49.584Z,48.32
2019-03-31T17:15:21.075Z,48.00
2019-03-31T17:17:52.876Z,47.49
2019-03-31T17:20:24.423Z,47.57
2019-03-31T17:22:55.687Z,47.46
2019-03-31T17:25:27.130Z,47.26
2019-03-31T17:27:58.542Z,47.33
2019-03-31T17:30:30.134Z,47.02
2019-03-31T17:33:01.240Z,46.94
2019-03-31T17:35:32.636Z,47.39
2019-03-31T17:38:04.971Z,46.87
2019-03-31T17:40:37.202Z,46.95
2019-03-31T17:43:08.372Z,47.04
2019-03-31T17:45:40.993Z,47.14
2019-03-31T17:48:12.804Z,46.94
2019-03-31T17:50:44.200Z,46.90
2019-03-31T17:53:15.521Z,47.35
2019-03-31T17:55:47.846Z,47.74
2019-03-31T17:58:19.116Z,48.09
2019-03-31T18:00:50.715Z,48.67
2019-03-31T18:03:22.141Z,48.71
2019-03-31T18:05:53.535Z,48.57
2019-03-31T18:08:24.940Z,48.63
2019-03-31T18:10:56.457Z,49.01
2019-03-31T18:13:29.230Z,49.60
2019-03-31T18:16:00.785Z,50.12
2019-03-31T18:18:32.226Z,50.21
2019-03-31T18:21:03.615Z,50.41
2019-03-31T18:23:35.037Z,50.71
2019-03-31T18:26:06.689Z,50.91
2019-03-31T18:28:38.037Z,50.93
2019-03-31T18:31:09.627Z,50.72
2019-03-31T18:33:41.054Z,50.71
2019-03-31T18:36:12.603Z,50.90
2019-03-31T18:38:43.937Z,50.98
2019-03-31T18:41:15.301Z,50.44
2019-03-31T18:43:51.610Z,51.19
2019-03-31T18:46:21.992Z,51.17
2019-03-31T18:48:53.713Z,51.31
2019-03-31T18:51:25.434Z,51.78
2019-03-31T18:54:06.548Z,51.65
2019-03-31T18:56:42.705Z,51.77
2019-03-31T18:59:32.059Z,51.82
2019-03-31T19:02:08.193Z,51.60
2019-03-31T19:04:41.373Z,52.16
2019-03-31T19:07:26.586Z,51.79
2019-03-31T19:10:05.433Z,51.92
2019-03-31T19:12:47.645Z,52.64
2019-03-31T19:15:24.556Z,52.42
2019-03-31T19:17:59.936Z,52.37
2019-03-31T19:20:49.278Z,52.61
2019-03-31T19:23:25.953Z,52.63
2019-03-31T19:26:14.118Z,53.09
2019-03-31T19:28:53.224Z,53.01
2019-03-31T19:31:42.710Z,53.06
2019-03-31T19:34:25.808Z,53.54
2019-03-31T19:36:58.910Z,53.43
2019-03-31T19:39:44.194Z,53.16
2019-03-31T19:42:28.997Z,53.21
2019-03-31T19:45:02.148Z,53.55
2019-03-31T19:47:39.023Z,53.78
2019-03-31T19:50:12.037Z,53.61
2019-03-31T19:52:51.834Z,53.81
2019-03-31T19:55:41.664Z,54.32
2019-03-31T19:58:15.861Z,54.01
2019-03-31T20:01:05.575Z,53.64
2019-03-31T20:03:38.632Z,53.69
2019-03-31T20:06:27.797Z,53.14
2019-03-31T20:09:09.708Z,53.47
2019-03-31T20:11:42.778Z,53.76
2019-03-31T20:14:21.917Z,54.55
2019-03-31T20:17:12.320Z,56.02
2019-03-31T20:20:02.007Z,56.51
2019-03-31T20:22:51.368Z,57.14
2019-03-31T20:25:24.385Z,57.57
2019-03-31T20:28:06.566Z,58.14
2019-03-31T20:30:39.524Z,59.38
2019-03-31T20:33:12.532Z,59.56
2019-03-31T20:35:57.606Z,60.30
2019-03-31T20:38:32.934Z,60.11
2019-03-31T20:41:08.772Z,60.66
2019-03-31T20:43:41.812Z,60.79
2019-03-31T20:46:13.347Z,61.02
2019-03-31T20:48:45.799Z,61.03
2019-03-31T20:51:17.257Z,61.08
2019-03-31T20:53:48.571Z,61.01
2019-03-31T20:56:22.043Z,61.13
2019-03-31T20:58:53.549Z,60.88
2019-03-31T21:01:24.731Z,60.93
2019-03-31T21:03:57.261Z,60.69
2019-03-31T21:06:28.751Z,60.59
2019-03-31T21:08:59.870Z,60.34
2019-03-31T21:11:31.145Z,60.60
2019-03-31T21:14:03.620Z,60.79
2019-03-31T21:16:34.977Z,60.98
2019-03-31T21:19:06.111Z,61.13
2019-03-31T21:21:38.132Z,61.07
2019-03-31T21:26:38.799Z,61.54
2019-03-31T21:29:10.176Z,61.49
2019-03-31T21:31:42.344Z,61.75
2019-03-31T21:34:13.590Z,62.51
2019-03-31T21:36:44.996Z,62.65
2019-03-31T21:39:16.290Z,62.76
2019-03-31T21:41:47.442Z,62.76
2019-03-31T21:44:18.746Z,62.90
2019-03-31T21:46:49.881Z,63.08
2019-03-31T21:49:22.205Z,63.05
2019-03-31T21:51:53.671Z,62.91
2019-03-31T21:54:26.445Z,60.62
2019-03-31T21:56:57.707Z,59.75
2019-03-31T21:59:29.061Z,59.18
2019-03-31T22:02:00.361Z,58.64
2019-03-31T22:04:31.839Z,56.58
2019-03-31T22:07:03.300Z,55.07
2019-03-31T22:09:34.617Z,53.86
2019-03-31T22:12:05.985Z,53.71
2019-03-31T22:14:37.140Z,53.47
2019-03-31T22:17:08.250Z,53.49
2019-03-31T22:19:39.532Z,53.54
2019-03-31T22:22:10.889Z,53.70
2019-03-31T22:24:42.189Z,54.11
2019-03-31T22:27:13.588Z,53.80
2019-03-31T22:29:45.027Z,53.84
2019-03-31T22:32:16.504Z,54.05
2019-03-31T22:34:47.926Z,54.21
2019-03-31T22:37:19.047Z,54.42
2019-03-31T22:39:50.555Z,54.75
2019-03-31T22:42:21.797Z,55.07
2019-03-31T22:44:53.137Z,55.39
2019-03-31T22:47:24.416Z,55.55
2019-03-31T22:49:56.841Z,55.88
2019-03-31T22:52:28.628Z,56.20
2019-03-31T22:54:59.741Z,56.46
2019-03-31T22:57:31.201Z,56.65
2019-03-31T23:00:02.521Z,56.92
2019-03-31T23:02:35.562Z,57.11
2019-03-31T23:05:06.690Z,57.36
2019-03-31T23:07:37.957Z,57.71
2019-03-31T23:10:09.106Z,57.93
2019-03-31T23:12:42.274Z,58.08
2019-03-31T23:15:13.520Z,58.33
2019-03-31T23:17:44.972Z,58.55
2019-03-31T23:20:16.114Z,58.67
2019-03-31T23:22:47.394Z,58.75
2019-03-31T23:25:18.490Z,58.85
2019-03-31T23:27:49.934Z,59.07
2019-03-31T23:30:21.176Z,59.10
2019-03-31T23:32:52.550Z,59.27
2019-03-31T23:35:23.792Z,59.56
2019-03-31T23:37:55.299Z,59.70
2019-03-31T23:40:26.750Z,59.79
2019-03-31T23:42:58.053Z,59.83
2019-03-31T23:45:32.282Z,60.06
2019-03-31T23:48:02.800Z,60.32
2019-03-31T23:50:34.772Z,60.65
2019-03-31T23:53:06.008Z,60.59
2019-03-31T23:55:37.401Z,60.67
2019-03-31T23:58:08.716Z,60.61
